Time;durP1;ratioP1;P1;durP2;ratioP2;P2;SDS_P1;SDS_P2;PMS_P1;PMS_P2;Temp;Humidity;BMP_temperature;BMP_pressure;BME280_temperature;BME280_humidity;BME280_pressure;Samples;Min_cycle;Max_cycle;Signal;HPM_P1;HPM_P2
2022/05/28 00:00:17;;;;;;;3.33;1.42;;;;;;;8.06;66.58;100291.64;1799684;78;21042;-88
2022/05/28 00:02:52;;;;;;;2.65;1.22;;;;;;;8.11;66.61;100291.36;1818002;78;21062;-88
2022/05/28 00:05:25;;;;;;;3.10;1.55;;;;;;;8.14;66.70;100278.31;1806257;78;21202;-88
2022/05/28 00:07:52;;;;;;;3.05;1.20;;;;;;;8.25;66.72;100279.05;1801776;79;21063;-89
2022/05/28 00:10:21;;;;;;;4.62;1.57;;;;;;;8.28;66.69;100268.22;1815043;78;21800;-89
2022/05/28 00:12:48;;;;;;;6.95;1.57;;;;;;;8.33;66.63;100270.55;1819370;78;21034;-87
2022/05/28 00:15:15;;;;;;;4.87;1.27;;;;;;;8.33;66.64;100267.92;1775967;79;21579;-89
2022/05/28 00:17:41;;;;;;;4.87;1.70;;;;;;;8.26;66.62;100259.83;1742649;82;21115;-89
2022/05/28 00:20:16;;;;;;;9.68;1.62;;;;;;;8.33;66.57;100272.26;1799140;78;21039;-90
2022/05/28 00:22:43;;;;;;;4.08;1.57;;;;;;;8.29;66.61;100263.42;1788917;78;21758;-87
2022/05/28 00:25:14;;;;;;;4.20;1.27;;;;;;;8.27;66.68;100259.88;1810371;79;20995;-90
2022/05/28 00:27:46;;;;;;;4.22;1.30;;;;;;;8.24;66.73;100260.21;1811054;79;21019;-89
2022/05/28 00:30:22;;;;;;;4.87;1.65;;;;;;;8.22;66.78;100262.82;1784977;79;21164;-89
2022/05/28 00:32:49;;;;;;;7.30;2.02;;;;;;;8.18;66.78;100257.91;1793038;79;21034;-89
2022/05/28 00:35:17;;;;;;;7.87;2.17;;;;;;;8.13;66.79;100267.81;1800896;79;21659;-88
2022/05/28 00:37:45;;;;;;;4.97;1.62;;;;;;;8.08;66.90;100262.86;1810574;78;21054;-91
2022/05/28 00:40:22;;;;;;;2.77;1.27;;;;;;;8.03;66.98;100256.59;1810046;79;21038;-89
2022/05/28 00:42:49;;;;;;;5.15;1.85;;;;;;;7.98;67.10;100257.80;1799469;78;21055;-89
2022/05/28 00:45:16;;;;;;;5.75;1.50;;;;;;;7.92;67.18;100251.05;1786794;79;21646;-89
2022/05/28 00:47:49;;;;;;;7.00;1.67;;;;;;;7.89;67.29;100252.30;1809207;79;21755;-89
2022/05/28 00:50:16;;;;;;;5.80;1.60;;;;;;;7.86;67.38;100249.15;1804599;77;21023;-89
2022/05/28 00:52:45;;;;;;;5.15;1.67;;;;;;;7.84;67.47;100245.60;1801826;79;21047;-91
2022/05/28 00:55:15;;;;;;;3.30;1.07;;;;;;;7.81;67.58;100238.98;1799269;79;21080;-89
2022/05/28 00:57:42;;;;;;;4.17;1.77;;;;;;;7.81;67.72;100235.06;1786685;79;21064;-91
2022/05/28 01:00:13;;;;;;;5.35;1.77;;;;;;;7.79;67.77;100230.20;1787261;79;21741;-89
2022/05/28 01:03:01;;;;;;;6.50;2.25;;;;;;;7.79;67.89;100238.06;1797807;79;21682;-89
2022/05/28 01:06:11;;;;;;;3.67;1.85;;;;;;;7.77;67.91;100231.86;1797708;79;21100;-87
2022/05/28 01:08:45;;;;;;;4.72;1.62;;;;;;;7.73;68.01;100228.69;1776721;80;21070;-88
2022/05/28 01:12:10;;;;;;;4.08;1.65;;;;;;;7.69;68.10;100224.22;1791299;78;21609;-88
2022/05/28 01:14:48;;;;;;;5.60;1.75;;;;;;;7.67;68.22;100222.86;1807163;79;21750;-91
2022/05/28 01:17:47;;;;;;;6.87;1.62;;;;;;;7.63;68.34;100224.94;1804380;79;21047;-88
2022/05/28 01:20:30;;;;;;;5.70;1.55;;;;;;;7.61;68.47;100227.05;1810150;78;21030;-89
2022/05/28 01:23:30;;;;;;;7.22;1.95;;;;;;;7.58;68.50;100228.75;1814288;78;21038;-89
2022/05/28 01:26:11;;;;;;;4.78;1.47;;;;;;;7.57;68.65;100227.39;1774904;79;21031;-89
2022/05/28 01:29:06;;;;;;;6.25;2.00;;;;;;;7.55;68.79;100215.98;1770640;79;21772;-90
2022/05/28 01:31:33;;;;;;;4.78;1.60;;;;;;;7.57;68.85;100215.17;1752047;81;21055;-88
2022/05/28 01:34:01;;;;;;;4.67;1.40;;;;;;;7.57;68.87;100226.08;1811777;78;21647;-87
2022/05/28 01:36:28;;;;;;;3.85;1.52;;;;;;;7.56;68.90;100231.75;1795775;78;21056;-87
2022/05/28 01:38:57;;;;;;;5.90;1.72;;;;;;;7.56;68.96;100228.22;1780170;79;21050;-88
2022/05/28 01:41:24;;;;;;;5.12;1.70;;;;;;;7.56;68.92;100237.38;1744290;81;21792;-88
2022/05/28 01:43:51;;;;;;;4.95;1.60;;;;;;;7.55;68.93;100234.31;1772530;80;21047;-87
2022/05/28 01:46:19;;;;;;;4.95;1.67;;;;;;;7.53;68.93;100227.72;1757518;79;21058;-87
2022/05/28 01:48:48;;;;;;;6.20;1.32;;;;;;;7.51;69.01;100228.53;1777653;79;21097;-88
2022/05/28 01:51:15;;;;;;;3.67;1.40;;;;;;;7.39;68.99;100215.95;1795017;79;21643;-87
2022/05/28 01:56:27;;;;;;;7.80;1.65;;;;;;;7.42;69.19;100231.76;1765782;79;21171;-88
2022/05/28 01:58:58;;;;;;;7.37;1.80;;;;;;;7.39;69.23;100219.87;1757693;80;21106;-87
2022/05/28 02:01:25;;;;;;;4.03;1.35;;;;;;;7.37;69.34;100209.34;1770951;79;21047;-88
2022/05/28 02:03:52;;;;;;;4.55;1.45;;;;;;;7.38;69.46;100209.83;1764041;79;21070;-87
2022/05/28 02:06:25;;;;;;;5.10;1.37;;;;;;;7.44;69.64;100214.36;1785724;79;22482;-89
2022/05/28 02:08:51;;;;;;;4.12;1.55;;;;;;;7.56;69.86;100216.03;1764300;80;21066;-87
2022/05/28 02:11:26;;;;;;;4.42;1.47;;;;;;;7.71;69.93;100209.00;1786458;79;21544;-88
2022/05/28 02:14:19;;;;;;;6.85;1.32;;;;;;;7.88;70.01;100205.96;1747709;80;21082;-89
2022/05/28 02:17:12;;;;;;;4.90;1.27;;;;;;;8.06;69.90;100208.20;1786682;79;21103;-89
2022/05/28 02:19:59;;;;;;;5.55;1.37;;;;;;;8.18;69.79;100197.62;1782458;79;21758;-90
2022/05/28 02:22:50;;;;;;;7.55;1.57;;;;;;;8.30;69.58;100193.09;1788004;79;21063;-90
2022/05/28 02:25:29;;;;;;;3.90;1.40;;;;;;;8.37;69.36;100194.12;1772240;79;21076;-89
2022/05/28 02:27:57;;;;;;;4.30;1.37;;;;;;;8.34;69.11;100200.19;1740697;81;21067;-90
2022/05/28 02:30:24;;;;;;;4.28;1.40;;;;;;;8.30;68.93;100194.41;1749708;79;21114;-87
2022/05/28 02:33:05;;;;;;;5.42;1.65;;;;;;;8.25;68.86;100192.52;1762692;79;21748;-88
2022/05/28 02:35:31;;;;;;;6.35;1.37;;;;;;;8.20;68.74;100201.56;1751101;81;21073;-88
2022/05/28 02:37:58;;;;;;;2.98;1.25;;;;;;;8.16;68.69;100208.89;1771878;79;21122;-87
2022/05/28 02:40:25;;;;;;;2.67;1.17;;;;;;;8.18;68.75;100208.11;1755564;80;21043;-88
2022/05/28 02:42:55;;;;;;;4.45;1.22;;;;;;;8.23;68.60;100204.27;1778503;79;21012;-87
2022/05/28 02:45:22;;;;;;;4.78;1.50;;;;;;;8.23;68.50;100199.03;1776665;79;21932;-89
2022/05/28 02:47:49;;;;;;;2.75;1.10;;;;;;;8.26;68.63;100203.45;1791519;79;21051;-87
2022/05/28 02:50:16;;;;;;;1.25;0.65;;;;;;;8.32;68.59;100208.44;1803370;77;21050;-87
2022/05/28 02:52:46;;;;;;;3.58;1.50;;;;;;;8.35;68.54;100201.06;1808608;78;21052;-88
2022/05/28 02:55:13;;;;;;;3.35;0.88;;;;;;;8.36;68.58;100203.73;1797206;78;21098;-87
2022/05/28 02:57:39;;;;;;;4.60;1.50;;;;;;;8.43;68.85;100200.89;1785536;79;21748;-88
2022/05/28 03:00:07;;;;;;;2.05;1.20;;;;;;;8.48;69.02;100195.30;1800830;78;21516;-87
2022/05/28 03:02:34;;;;;;;3.62;1.20;;;;;;;8.58;69.18;100195.53;1802641;78;21659;-90
2022/05/28 03:05:01;;;;;;;1.50;0.85;;;;;;;8.70;69.27;100189.28;1794409;78;21553;-89
2022/05/28 03:07:29;;;;;;;1.65;0.90;;;;;;;8.81;69.11;100194.35;1784308;79;21026;-89
2022/05/28 03:09:56;;;;;;;4.30;0.90;;;;;;;8.87;68.94;100197.11;1799969;78;22658;-87
2022/05/28 03:12:23;;;;;;;2.47;1.10;;;;;;;8.93;68.90;100192.42;1790412;79;21051;-87
2022/05/28 03:14:50;;;;;;;1.37;0.75;;;;;;;8.98;68.84;100198.67;1823920;77;21034;-88
2022/05/28 03:17:35;;;;;;;4.67;1.05;;;;;;;9.03;68.93;100201.38;1783124;78;21093;-90
2022/05/28 03:20:02;;;;;;;1.32;0.62;;;;;;;9.07;68.94;100201.50;1726854;80;21046;-88
2022/05/28 03:22:29;;;;;;;1.40;0.82;;;;;;;9.09;68.93;100193.23;1786062;80;21913;-89
2022/05/28 03:24:56;;;;;;;2.00;1.12;;;;;;;9.10;68.94;100186.23;1782893;80;21007;-89
2022/05/28 03:27:22;;;;;;;6.28;1.42;;;;;;;9.09;68.77;100177.91;1766834;80;21098;-88
2022/05/28 03:29:49;;;;;;;3.98;0.90;;;;;;;9.06;68.79;100185.28;1785405;80;21047;-89
2022/05/28 03:32:16;;;;;;;1.20;0.85;;;;;;;9.02;68.71;100179.51;1811717;77;21058;-89
2022/05/28 03:34:51;;;;;;;2.22;0.75;;;;;;;9.01;68.69;100178.16;1792049;77;21103;-87
2022/05/28 03:37:19;;;;;;;2.47;1.15;;;;;;;8.93;68.74;100156.59;1781770;78;21070;-87
2022/05/28 03:39:46;;;;;;;5.83;0.80;;;;;;;9.07;68.76;100174.38;1796954;77;21054;-89
2022/05/28 03:42:12;;;;;;;2.00;0.93;;;;;;;9.10;68.81;100177.05;1801588;78;20998;-87
2022/05/28 03:44:39;;;;;;;2.30;0.90;;;;;;;9.15;68.70;100181.55;1803368;79;21268;-87
2022/05/28 03:47:06;;;;;;;1.90;0.88;;;;;;;9.20;68.62;100173.78;1806252;79;21770;-87
2022/05/28 03:49:36;;;;;;;2.85;0.98;;;;;;;9.24;68.64;100176.92;1768564;80;21570;-87
2022/05/28 03:52:04;;;;;;;3.20;1.47;;;;;;;9.36;68.68;100176.28;1749842;77;21568;-87
2022/05/28 03:54:31;;;;;;;3.10;0.85;;;;;;;9.45;68.60;100179.54;1797011;78;21003;-90
2022/05/28 03:57:04;;;;;;;4.28;1.00;;;;;;;9.56;68.70;100181.08;1800530;79;21040;-87
2022/05/28 03:59:32;;;;;;;2.77;1.20;;;;;;;9.70;68.58;100171.70;1798832;79;21758;-88
2022/05/28 04:01:58;;;;;;;2.92;1.02;;;;;;;9.88;68.46;100168.11;1786751;79;21070;-89
2022/05/28 04:04:25;;;;;;;5.83;0.80;;;;;;;10.28;69.00;100171.87;1806469;79;21026;-89
2022/05/28 04:07:02;;;;;;;2.67;0.90;;;;;;;11.28;69.72;100164.18;1778951;79;21176;-88
2022/05/28 04:09:29;;;;;;;2.47;0.80;;;;;;;12.18;69.25;100164.30;1799860;79;21560;-88
2022/05/28 04:11:58;;;;;;;1.57;1.02;;;;;;;13.45;67.40;100158.53;1804842;79;22558;-88
2022/05/28 04:14:24;;;;;;;3.33;0.93;;;;;;;13.71;65.45;100159.49;1819687;77;21003;-89
2022/05/28 04:17:10;;;;;;;2.25;0.93;;;;;;;13.80;64.58;100167.45;1823139;77;21034;-90
2022/05/28 04:19:37;;;;;;;0.93;0.47;;;;;;;14.27;64.66;100166.21;1792900;79;21520;-87
2022/05/28 04:22:04;;;;;;;1.60;0.90;;;;;;;15.21;64.58;100159.48;1825054;77;21113;-88
2022/05/28 04:24:51;;;;;;;2.40;1.00;;;;;;;16.12;63.22;100152.84;1794997;77;21749;-90
2022/05/28 04:27:23;;;;;;;1.35;0.90;;;;;;;15.97;60.51;100156.03;1806301;79;20995;-88
2022/05/28 04:29:51;;;;;;;1.40;0.70;;;;;;;15.33;59.70;100147.48;1806547;79;21011;-89
2022/05/28 04:32:20;;;;;;;3.10;1.00;;;;;;;14.87;59.43;100155.61;1805775;79;21050;-88
2022/05/28 04:34:47;;;;;;;1.98;0.82;;;;;;;14.78;59.81;100160.02;1806786;79;21663;-87
2022/05/28 04:37:13;;;;;;;1.57;0.80;;;;;;;15.07;60.45;100159.09;1802115;79;21740;-87
2022/05/28 04:39:40;;;;;;;2.67;0.85;;;;;;;15.69;59.37;100161.46;1800828;79;21039;-89
2022/05/28 04:42:20;;;;;;;3.05;1.10;;;;;;;15.71;58.79;100156.61;1806651;79;21622;-88
2022/05/28 04:44:47;;;;;;;1.42;0.60;;;;;;;17.74;61.33;100152.95;1792135;79;21183;-92
2022/05/28 04:47:15;;;;;;;2.33;0.70;;;;;;;21.03;60.11;100147.55;1779517;80;21022;-91
2022/05/28 04:49:42;;;;;;;3.05;0.70;;;;;;;23.53;56.34;100134.08;1776136;78;22579;-87
2022/05/28 04:52:09;;;;;;;1.20;0.78;;;;;;;24.05;52.12;100129.36;1787881;79;20999;-87
2022/05/28 04:54:36;;;;;;;1.25;0.60;;;;;;;23.32;49.88;100121.01;1813522;78;21042;-87
2022/05/28 04:57:26;;;;;;;1.25;0.62;;;;;;;22.36;48.66;100130.20;1792987;78;21260;-89
2022/05/28 04:59:53;;;;;;;1.52;0.57;;;;;;;21.81;48.69;100140.41;1778916;79;21122;-88
2022/05/28 05:02:20;;;;;;;0.50;0.50;;;;;;;21.19;48.03;100143.10;1779391;80;21745;-89
2022/05/28 05:04:47;;;;;;;1.57;0.80;;;;;;;21.99;48.61;100136.72;1802334;78;21048;-89
2022/05/28 05:07:13;;;;;;;1.20;0.60;;;;;;;21.99;48.61;100136.72;1809047;79;21070;-86
2022/05/28 05:09:40;;;;;;;2.35;0.53;;;;;;;23.58;48.10;100144.19;1792823;77;21094;-89
2022/05/28 05:12:08;;;;;;;0.82;0.50;;;;;;;25.16;46.69;100143.48;1813111;78;21042;-87
2022/05/28 05:14:34;;;;;;;0.93;0.45;;;;;;;26.02;45.11;100131.42;1818799;78;21748;-87
2022/05/28 05:17:01;;;;;;;1.62;0.40;;;;;;;27.22;44.28;100133.88;1815426;78;21725;-87
2022/05/28 05:19:28;;;;;;;0.30;0.23;;;;;;;27.96;42.26;100138.81;1756485;80;21063;-88
2022/05/28 05:21:56;;;;;;;1.07;0.50;;;;;;;28.36;41.47;100134.27;1791477;79;21081;-89
2022/05/28 05:24:23;;;;;;;0.85;0.68;;;;;;;29.18;40.25;100143.34;1793738;79;21051;-89
2022/05/28 05:26:50;;;;;;;1.80;0.72;;;;;;;29.77;39.55;100147.34;1763751;80;22505;-87
2022/05/28 05:29:31;;;;;;;1.15;0.62;;;;;;;30.48;38.87;100143.16;1794202;78;21036;-91
2022/05/28 05:31:58;;;;;;;1.12;0.60;;;;;;;31.49;37.70;100140.20;1778863;80;21036;-89
2022/05/28 05:34:25;;;;;;;1.22;0.60;;;;;;;32.22;36.58;100137.14;1791661;79;21148;-89
2022/05/28 05:36:52;;;;;;;0.53;0.40;;;;;;;31.82;34.83;100139.23;1808987;79;21050;-89
2022/05/28 05:39:19;;;;;;;0.42;0.35;;;;;;;30.05;33.40;100150.94;1800246;79;21810;-87
2022/05/28 05:41:45;;;;;;;1.62;0.70;;;;;;;27.77;33.21;100143.50;1795002;79;21055;-87
2022/05/28 05:44:12;;;;;;;1.92;0.30;;;;;;;25.60;33.56;100145.97;1810012;78;21015;-91
2022/05/28 05:46:40;;;;;;;0.55;0.30;;;;;;;23.85;34.24;100147.62;1788246;79;21131;-87
2022/05/28 05:49:07;;;;;;;1.05;0.50;;;;;;;22.43;35.18;100146.03;1762901;79;21051;-86
2022/05/28 05:51:44;;;;;;;0.75;0.42;;;;;;;21.28;36.02;100154.89;1795507;79;21747;-88
2022/05/28 05:54:11;;;;;;;1.80;0.40;;;;;;;20.24;36.64;100157.17;1787119;79;21491;-85
2022/05/28 05:56:38;;;;;;;0.78;0.42;;;;;;;19.23;37.45;100158.45;1748916;79;21610;-86
2022/05/28 05:59:04;;;;;;;1.87;0.60;;;;;;;18.51;38.37;100167.77;1758126;80;21045;-85
2022/05/28 06:01:31;;;;;;;1.87;0.75;;;;;;;17.92;39.08;100166.00;1781322;79;21064;-89
2022/05/28 06:03:58;;;;;;;1.17;0.55;;;;;;;17.45;39.84;100160.84;1791412;79;21751;-89
2022/05/28 06:06:24;;;;;;;3.08;0.65;;;;;;;17.02;40.30;100158.69;1777020;79;21019;-86
2022/05/28 06:08:51;;;;;;;1.50;0.50;;;;;;;16.72;40.93;100158.06;1770061;79;21575;-89
2022/05/28 06:11:18;;;;;;;0.88;0.50;;;;;;;16.57;41.33;100155.56;1784162;79;21055;-85
2022/05/28 06:13:44;;;;;;;0.93;0.60;;;;;;;16.69;42.02;100151.02;1784183;79;21036;-85
2022/05/28 06:16:11;;;;;;;0.80;0.50;;;;;;;16.86;42.05;100156.20;1778235;79;21706;-84
2022/05/28 06:18:38;;;;;;;1.00;0.60;;;;;;;16.78;42.13;100152.72;1794294;79;21023;-91
2022/05/28 06:21:07;;;;;;;1.62;0.95;;;;;;;16.56;42.05;100156.47;1792906;79;21039;-91
2022/05/28 06:23:34;;;;;;;1.80;0.50;;;;;;;16.29;42.21;100154.03;1787524;79;21008;-84
2022/05/28 06:26:03;;;;;;;1.00;0.55;;;;;;;15.99;42.73;100157.80;1776665;79;21070;-84
2022/05/28 06:28:41;;;;;;;1.65;0.80;;;;;;;15.84;43.14;100157.88;1780841;79;21783;-88
2022/05/28 06:31:11;;;;;;;3.45;0.95;;;;;;;15.73;43.43;100160.16;1767573;79;21077;-89
2022/05/28 06:33:41;;;;;;;2.17;0.72;;;;;;;15.46;43.59;100139.91;1771684;79;21105;-87
2022/05/28 06:36:09;;;;;;;1.35;0.50;;;;;;;15.42;43.98;100154.53;1781805;79;21056;-88
2022/05/28 06:38:36;;;;;;;2.27;0.78;;;;;;;15.34;44.21;100156.77;1782528;79;21526;-85
2022/05/28 06:41:03;;;;;;;1.45;0.60;;;;;;;15.23;44.46;100153.28;1766894;79;21750;-88
2022/05/28 06:43:30;;;;;;;2.20;1.05;;;;;;;15.31;44.78;100147.48;1780867;79;21047;-88
2022/05/28 06:45:58;;;;;;;0.90;0.57;;;;;;;15.56;45.09;100152.71;1775657;77;21055;-89
2022/05/28 06:48:25;;;;;;;1.70;0.60;;;;;;;15.90;45.15;100153.42;1759162;79;21095;-89
2022/05/28 06:51:04;;;;;;;0.40;0.40;;;;;;;16.16;44.97;100155.45;1768725;79;21008;-89
2022/05/28 06:53:45;;;;;;;2.45;0.78;;;;;;;16.30;44.94;100156.23;1709756;82;22666;-85
2022/05/28 06:56:12;;;;;;;1.35;0.40;;;;;;;16.32;44.65;100153.99;1729635;82;21042;-89
2022/05/28 06:58:38;;;;;;;0.75;0.50;;;;;;;16.42;44.54;100144.20;1778462;79;21098;-83
2022/05/28 07:01:07;;;;;;;2.95;0.57;;;;;;;16.29;44.47;100154.03;1763080;79;21093;-83
2022/05/28 07:03:33;;;;;;;1.40;0.60;;;;;;;16.39;44.87;100149.52;1768250;79;21055;-85
2022/05/28 07:06:00;;;;;;;1.37;0.60;;;;;;;16.65;44.89;100146.63;1768766;79;22547;-85
2022/05/28 07:08:27;;;;;;;3.55;0.75;;;;;;;16.73;44.73;100141.24;1787020;79;21099;-85
2022/05/28 07:10:58;;;;;;;1.98;0.78;;;;;;;16.65;44.43;100154.61;1786704;79;21058;-85
2022/05/28 07:13:25;;;;;;;1.92;0.70;;;;;;;16.50;44.51;100160.06;1773478;79;21098;-87
2022/05/28 07:15:52;;;;;;;2.98;1.07;;;;;;;16.42;44.51;100153.50;1768095;80;21094;-84
2022/05/28 07:18:19;;;;;;;1.40;0.82;;;;;;;16.43;44.82;100145.94;1769744;79;21730;-87
2022/05/28 07:20:45;;;;;;;2.83;1.00;;;;;;;16.53;44.97;100154.70;1785536;79;21122;-88
2022/05/28 07:23:23;;;;;;;3.40;1.20;;;;;;;16.63;44.81;100152.41;1769202;79;21058;-88
2022/05/28 07:25:53;;;;;;;1.27;0.98;;;;;;;16.79;44.80;100151.80;1777138;79;21036;-87
2022/05/28 07:28:28;;;;;;;2.22;1.10;;;;;;;16.78;44.46;100146.49;1777587;79;21718;-87
2022/05/28 07:31:06;;;;;;;3.35;1.07;;;;;;;16.77;44.62;100136.32;1777179;79;21758;-87
2022/05/28 07:33:39;;;;;;;5.80;1.02;;;;;;;16.79;44.56;100137.19;1777676;79;21047;-84
2022/05/28 07:36:08;;;;;;;2.17;0.98;;;;;;;17.01;44.57;100139.20;1758145;79;21090;-84
2022/05/28 07:38:35;;;;;;;3.98;1.40;;;;;;;17.20;44.31;100139.00;1777030;79;21051;-85
2022/05/28 07:41:06;;;;;;;2.75;1.10;;;;;;;17.17;43.95;100147.00;1773170;79;21067;-84
2022/05/28 07:43:34;;;;;;;2.17;1.32;;;;;;;16.99;43.77;100142.33;1783884;79;21772;-84
2022/05/28 07:46:01;;;;;;;6.42;1.17;;;;;;;16.88;44.04;100143.77;1779147;79;21044;-87
2022/05/28 07:48:28;;;;;;;1.77;0.93;;;;;;;16.79;44.08;100129.66;1784486;79;21066;-88
2022/05/28 07:50:55;;;;;;;3.77;1.22;;;;;;;16.67;44.18;100132.01;1779445;79;21047;-86
2022/05/28 07:53:21;;;;;;;5.03;1.87;;;;;;;16.59;44.25;100148.03;1771515;79;21058;-87
2022/05/28 07:55:48;;;;;;;3.58;1.00;;;;;;;16.53;43.96;100142.75;1780171;79;21766;-86
2022/05/28 07:58:16;;;;;;;3.00;1.30;;;;;;;16.66;44.00;100145.72;1779358;79;21038;-87
2022/05/28 08:00:48;;;;;;;2.35;1.20;;;;;;;16.85;43.75;100141.59;1773866;79;21108;-85
2022/05/28 08:03:16;;;;;;;1.82;1.00;;;;;;;17.04;43.77;100134.28;1776757;79;21060;-85
2022/05/28 08:05:46;;;;;;;3.08;1.10;;;;;;;17.14;43.73;100131.97;1778102;79;21058;-86
2022/05/28 08:08:13;;;;;;;2.17;0.98;;;;;;;17.24;43.86;100130.95;1775935;79;21821;-84
2022/05/28 08:10:39;;;;;;;2.33;1.02;;;;;;;17.34;43.88;100132.16;1760196;79;21701;-88
2022/05/28 08:13:19;;;;;;;3.45;1.00;;;;;;;17.42;43.88;100140.95;1767967;79;21169;-85
2022/05/28 08:15:46;;;;;;;3.10;1.55;;;;;;;17.42;43.58;100128.98;1768939;79;21054;-84
2022/05/28 08:18:14;;;;;;;2.30;1.05;;;;;;;17.29;43.24;100132.23;1774192;79;21102;-87
2022/05/28 08:23:26;;;;;;;2.90;1.12;;;;;;;17.43;43.40;100124.06;1778383;79;21039;-85
2022/05/28 08:25:53;;;;;;;4.35;1.60;;;;;;;17.47;43.32;100124.45;1777876;79;21054;-84
2022/05/28 08:28:19;;;;;;;2.75;1.65;;;;;;;17.48;43.21;100132.88;1786752;79;21538;-87
2022/05/28 08:30:47;;;;;;;6.85;4.70;;;;;;;17.34;42.85;100134.36;1781430;79;21031;-85
2022/05/28 08:33:15;;;;;;;3.35;1.67;;;;;;;17.05;42.97;100138.72;1782693;79;22615;-85
2022/05/28 08:35:42;;;;;;;6.12;2.55;;;;;;;16.74;42.72;100129.70;1786391;79;21493;-85
2022/05/28 08:38:12;;;;;;;3.83;1.30;;;;;;;16.33;42.96;100119.91;1769279;79;21050;-84
2022/05/28 08:40:50;;;;;;;5.35;1.57;;;;;;;16.06;43.21;100125.44;1772492;79;21043;-84
2022/05/28 08:43:17;;;;;;;2.90;0.98;;;;;;;15.93;43.77;100118.91;1776240;79;21125;-83
2022/05/28 08:45:46;;;;;;;3.10;1.32;;;;;;;16.04;44.06;100125.91;1773817;79;21811;-87
2022/05/28 08:48:17;;;;;;;5.65;1.00;;;;;;;16.24;44.28;100128.41;1772653;79;21047;-84
2022/05/28 08:51:00;;;;;;;1.47;0.82;;;;;;;16.41;44.19;100123.83;1743544;80;21531;-84
2022/05/28 08:53:31;;;;;;;3.65;1.17;;;;;;;16.55;44.19;100130.78;1784302;79;21020;-84
2022/05/28 08:55:58;;;;;;;4.70;1.47;;;;;;;16.88;44.04;100126.95;1770175;79;21027;-87
2022/05/28 08:58:27;;;;;;;3.08;1.30;;;;;;;17.10;43.97;100129.80;1774127;79;21704;-87
2022/05/28 09:01:17;;;;;;;4.22;1.25;;;;;;;17.34;43.72;100136.16;1794496;79;21040;-86
2022/05/28 09:03:57;;;;;;;5.25;1.35;;;;;;;17.46;43.57;100131.56;1764288;79;21058;-86
2022/05/28 09:06:32;;;;;;;3.90;1.70;;;;;;;17.62;43.16;100138.00;1794926;79;21133;-85
2022/05/28 09:08:58;;;;;;;11.60;1.70;;;;;;;17.64;42.64;100129.11;1794293;79;21051;-87
2022/05/28 09:11:39;;;;;;;5.60;1.60;;;;;;;17.65;42.70;100124.20;1753214;79;21683;-85
2022/05/28 09:14:26;;;;;;;3.70;1.50;;;;;;;17.76;42.74;100128.52;1772366;79;21636;-85
2022/05/28 09:16:56;;;;;;;6.05;1.60;;;;;;;17.83;42.43;100123.50;1775409;79;21071;-85
2022/05/28 09:19:30;;;;;;;2.52;1.17;;;;;;;17.79;42.19;100133.34;1784657;79;21027;-86
2022/05/28 09:21:57;;;;;;;4.40;1.10;;;;;;;17.64;42.16;100126.45;1782243;79;21090;-85
2022/05/28 09:24:27;;;;;;;2.58;1.10;;;;;;;17.54;42.34;100127.92;1779814;79;21751;-85
2022/05/28 09:27:21;;;;;;;2.12;0.90;;;;;;;17.52;42.64;100127.94;1766846;79;21455;-85
2022/05/28 09:30:17;;;;;;;;;;;;;;;17.66;42.75;100120.66;1785230;79;21058;-87
2022/05/28 09:33:06;;;;;;;2.35;1.05;;;;;;;17.64;42.16;100119.80;1767525;79;21204;-88
2022/05/28 09:35:47;;;;;;;2.25;1.10;;;;;;;17.45;42.16;100127.12;1776577;79;21062;-85
2022/05/28 09:38:35;;;;;;;3.60;1.12;;;;;;;17.33;42.29;100124.64;1762852;81;21927;-87
2022/05/28 09:41:30;;;;;;;4.37;1.30;;;;;;;17.17;42.04;100124.39;1767285;80;21050;-86
2022/05/28 09:44:08;;;;;;;4.75;1.35;;;;;;;17.02;42.19;100132.97;1770656;79;22411;-88
2022/05/28 09:46:40;;;;;;;2.25;1.00;;;;;;;16.97;42.45;100137.91;1779843;79;21563;-88
2022/05/28 09:49:22;;;;;;;1.98;0.90;;;;;;;17.01;42.44;100140.99;1774712;78;21058;-88
2022/05/28 09:52:01;;;;;;;3.65;1.20;;;;;;;17.10;42.54;100136.44;1814615;77;21752;-87
2022/05/28 09:54:37;;;;;;;2.77;0.95;;;;;;;17.10;42.20;100120.95;1797717;77;21584;-87
2022/05/28 09:57:23;;;;;;;1.75;0.80;;;;;;;17.09;42.50;100125.36;1809105;77;21586;-86
2022/05/28 09:59:59;;;;;;;2.87;1.17;;;;;;;17.21;42.64;100127.44;1775226;79;21077;-86
2022/05/28 10:02:29;;;;;;;2.83;0.80;;;;;;;17.37;42.50;100131.67;1747968;80;21043;-83
2022/05/28 10:05:09;;;;;;;1.87;0.95;;;;;;;17.55;42.41;100129.23;1770186;80;21747;-85
2022/05/28 10:07:42;;;;;;;2.37;0.95;;;;;;;17.80;42.48;100122.23;1754153;80;21047;-85
2022/05/28 10:10:31;;;;;;;3.75;1.12;;;;;;;18.04;42.22;100113.91;1806683;79;21073;-85
2022/05/28 10:13:18;;;;;;;7.62;1.00;;;;;;;18.36;41.91;100112.49;1795378;79;21571;-90
2022/05/28 10:16:00;;;;;;;1.47;0.98;;;;;;;18.59;41.70;100115.20;1810815;77;21061;-86
2022/05/28 10:18:44;;;;;;;4.25;0.85;;;;;;;18.51;41.18;100119.34;1801458;79;21759;-89
2022/05/28 10:21:17;;;;;;;1.85;0.80;;;;;;;18.17;41.00;100115.02;1773498;80;21544;-90
2022/05/28 10:23:51;;;;;;;2.27;1.00;;;;;;;17.77;41.28;100132.45;1774969;79;21043;-89
2022/05/28 10:26:29;;;;;;;3.33;1.00;;;;;;;17.45;41.53;100139.55;1771762;80;21039;-86
2022/05/28 10:29:00;;;;;;;2.52;0.98;;;;;;;17.07;42.31;100152.87;1759437;79;21049;-89
2022/05/28 10:31:40;;;;;;;2.20;1.40;;;;;;;16.73;43.19;100154.98;1757132;80;21845;-88
2022/05/28 10:34:08;;;;;;;2.40;1.37;;;;;;;16.44;43.85;100156.11;1771921;80;21139;-85
2022/05/28 10:36:35;;;;;;;3.20;1.10;;;;;;;16.13;44.38;100160.35;1764529;80;21050;-86
2022/05/28 10:39:13;;;;;;;3.17;1.07;;;;;;;15.88;44.79;100153.88;1735536;82;21686;-89
2022/05/28 10:41:42;;;;;;;2.85;1.10;;;;;;;15.82;45.29;100157.91;1812076;79;21019;-86
2022/05/28 10:44:08;;;;;;;2.65;1.20;;;;;;;15.98;45.81;100157.80;1795759;79;21741;-88
2022/05/28 10:47:07;;;;;;;1.87;1.00;;;;;;;16.26;46.12;100152.72;1767883;79;21050;-90
2022/05/28 10:50:12;;;;;;;3.05;1.05;;;;;;;16.61;46.33;100152.87;1757931;80;21110;-88
2022/05/28 10:52:56;;;;;;;1.57;0.80;;;;;;;17.10;46.44;100157.72;1753269;80;21074;-87
2022/05/28 10:55:45;;;;;;;;;;;;;;;17.44;45.89;100152.45;1741054;80;21047;-87
2022/05/28 10:58:43;;;;;;;2.27;1.10;;;;;;;17.62;45.60;100152.18;1765080;80;21694;-87
2022/05/28 11:01:49;;;;;;;1.50;0.78;;;;;;;17.69;45.47;100159.19;1765078;80;21079;-88
2022/05/28 11:04:26;;;;;;;1.92;1.00;;;;;;;17.76;45.48;100157.33;1762962;80;21046;-85
2022/05/28 11:07:32;;;;;;;1.40;0.68;;;;;;;17.91;45.41;100151.41;1754906;79;21008;-84
2022/05/28 11:10:53;;;;;;;1.57;0.60;;;;;;;17.90;44.84;100163.81;1748615;79;21086;-89
2022/05/28 11:13:31;;;;;;;1.47;0.80;;;;;;;17.71;44.64;100160.95;1769155;79;21798;-86
2022/05/28 11:16:10;;;;;;;1.02;0.80;;;;;;;17.43;44.94;100154.20;1811249;79;21540;-85
2022/05/28 11:18:59;;;;;;;1.20;0.82;;;;;;;17.24;45.17;100156.22;1811695;78;21034;-94
2022/05/28 11:21:54;;;;;;;2.52;1.00;;;;;;;17.11;45.65;100150.61;1802495;78;21215;-85
2022/05/28 11:24:41;;;;;;;2.55;1.15;;;;;;;17.01;45.77;100155.61;1768997;80;21043;-93
2022/05/28 11:27:33;;;;;;;0.93;0.85;;;;;;;17.07;45.76;100158.20;1764939;80;21833;-93
2022/05/28 11:30:08;;;;;;;1.77;0.98;;;;;;;17.25;45.57;100156.66;1765715;80;21047;-86
2022/05/28 11:32:58;;;;;;;2.62;0.80;;;;;;;17.37;45.53;100162.73;1768629;80;21316;-85
2022/05/28 11:35:45;;;;;;;1.30;0.90;;;;;;;17.32;45.28;100160.56;1763076;80;21047;-84
2022/05/28 11:38:43;;;;;;;1.57;0.80;;;;;;;17.46;45.40;100160.83;1814210;78;21590;-84
2022/05/28 11:41:34;;;;;;;1.22;0.85;;;;;;;17.69;45.80;100159.19;1763696;80;21791;-84
2022/05/28 11:44:30;;;;;;;0.70;0.60;;;;;;;17.94;45.82;100168.19;1739244;80;21093;-92
2022/05/28 11:47:29;;;;;;;1.00;0.80;;;;;;;18.10;45.93;100155.53;1762367;80;21730;-85
2022/05/28 11:53:30;;;;;;;2.40;0.80;;;;;;;18.43;45.70;100146.13;1737409;81;21059;-91
2022/05/28 11:56:00;;;;;;;0.68;0.53;;;;;;;18.38;44.93;100157.30;1737883;81;21763;-93
2022/05/28 11:58:32;;;;;;;1.10;0.72;;;;;;;18.36;44.79;100154.25;1731119;81;21584;-90
2022/05/28 12:01:02;;;;;;;1.00;0.70;;;;;;;18.52;44.75;100148.20;1725460;81;21094;-84
2022/05/28 12:03:30;;;;;;;0.68;0.57;;;;;;;18.60;44.37;100145.83;1727622;81;21161;-84
2022/05/28 12:06:34;;;;;;;1.30;0.93;;;;;;;18.54;43.97;100148.58;1733669;82;21075;-85